Airfield :
LOGIN :

Register | Disclaimer

   EN    FR    IT 

 










Legend :    VFR   Marginal VFR   IFR   Intensive IFR   Very Intensive IFR
Visi :
Ceiling :
>= 8 km
>= 3000ft
5 to 8 km
1000 to 3000 ft
1500m to 5 km
500 to 1000 ft
800 to 1500m
200 to 500 ft
< 800m
< 200 ft
Symbols :   Thunderstorms  Fog  Heavy snow  Heavy precipitations  Wind > 20 kt
SIGMETs :     Misc.  Thunderstorms  Icing  Turbulence  Mountain Waves  Volcanic Ashes






- Airport Elevation : 1674 ft
- IATA code : BRN


LSZB - Bern Belp

CURRENT METAR :
  • 210020Z AUTO 26005KT 230V290 9999 SCT065 SCT070 BKN100 //////TCU 22/10 Q1023

EXPIRED METARs :
  • 202350Z AUTO VRB03KT 9999 FEW055CB BKN065 23/10 Q1023
  • 202320Z AUTO 20004KT 160V240 9999 BKN065 SCT///CB 23/10 Q1023
  • 202250Z AUTO 21004KT 120V270 9999 SCT065 SCT075 BKN090 SCT///CB 23/10 Q1023
  • 202220Z AUTO 27003KT 220V350 9999 FEW095 SCT100 //////TCU 24/08 Q1023
  • 202150Z AUTO 23005KT 170V290 9999 FEW095 //////TCU 24/08 Q1022
  • 202120Z AUTO 25006KT 210V310 9999 SCT085 BKN095 24/08 Q1022

Expired Forecast.
ATIS : +41 22 417 40 76



MET'MAP, your aeronautical weather chart ! - Copyright ORBIFLY December 2007 - Disclaimer

ORBIFLY MET'MAP TEAM :

Programming & Development : Alexandra Zaïnal
Original concept : Baudouin d'Aumeries
Technical & hardware support : Manuel Goepfert
Assistance : Marc-Olivier Méhu

Contact : metmap@orbifly.com




SOURCES & CREDITS :

   NOAA